Карточка аэропорта UAAA

Внимание!
Информация на этой странице в стадии наполнения.
Если вы не увидели какой-то информации, или заметили неточность - пожалуйста сообщите нам!
Спасибо!
Команда RU-STAFF
Название аэропортаАлматы
Название аэропорта (англ.)Almaty
Превышение2238 ft. (682.1 m.)
Координаты43°21.072', 77°1.5960000000001'
Высота перехода10000ft
Эшелон переходаFL120, QNH<733:FL130
Коды ответчика3501-3517, 3401-3427
Зона ОрВДАлматы РПИ (UAAA)
Данные METARUAAA 090900Z 06002MPS 030V100 2500 BR BKN050 OVC100 01/M02 Q1003 NOSIG
Проноз погоды (TAF)UAAA 090503Z 0906/1006 04003MPS 3100 BR FU SCT020CB BKN100 TX03/0909Z TNM05/1001Z TEMPO 0906/0912 09003G09MPS 1700 BKN015CB OVC100 BECMG 0912/0913 22005MPS 1100 BKN011CB OVC030 TEMPO 0912/0924 27004G12MPS 0300 -SHSN FZFG BKN003 OVC011CB TEMPO 1000/1004 VRB01MPS 0200 -SN FZFG VV001 BECMG 1004/1006 06003MPS 2500
NOTAMshow/hide NOTAM
AWOS   TABLE

Информация о ВПП

ВПП Длина ВПП (м.) Покрытие Курс ВПП Частота ILS
05L4500Бетон51109.1
23R4500Бетон231111.3
05R4400Асфальтобетон51110.3
23L4400Асфальтобетон231108.1

Диспетчерские позиции

Позывной Наименование органа УВД Частота
UAAA_APPАлматы-Подход124.8
UAAA_TWRАлматы-Вышка119.4
UAAA_GNDАлматы-Руление121.7
UAAA_R_APPАлматы-Круг120.8



Спутниковое изображение